Olmitz, Kansas
Current Conditions -  °F | °C
As of 7:35 PM on Friday 31 Oct 2014 (Local Time) from KGBD Reporting Station
Clear Clear  
Wind Chill: 32°   Ceiling: Unl
Heat Index: 37°   Visibility: 10mi
Dew Point: 16°   Wind: 7mph
Humidity: 41%   Direction: 110°ESE
Pressure: 30.42"   Gusts: NA
Location:  38.52°N, 98.94°W
Report Text: KGBD 010035Z AUTO 11006KT 10SM CLR 03/M09 A3042 RMK AO1
Loading
Personal Weather Stations






























Interactive Weather Map
Tropical Storm Tracking
New forecast layout! Learn more

10-Day Weather Forecast

Advertisements
Track Severe Weather on mobile